Time;durP1;ratioP1;P1;durP2;ratioP2;P2;SDS_P1;SDS_P2;PMS_P1;PMS_P2;Temp;Humidity;BMP_temperature;BMP_pressure;BME280_temperature;BME280_humidity;BME280_pressure;Samples;Min_cycle;Max_cycle;Signal;HPM_P1;HPM_P2
2023/07/19 00:02:15;;;;;;;9.80;5.53;;;;;;;23.04;77.69;98858.16;5083790;28;20051;-85
2023/07/19 00:04:59;;;;;;;8.50;5.68;;;;;;;23.06;77.97;98868.59;5079807;28;20109;-87
2023/07/19 00:07:44;;;;;;;7.20;5.15;;;;;;;23.08;77.62;98861.88;5082433;28;20109;-87
2023/07/19 00:10:28;;;;;;;8.57;5.60;;;;;;;23.16;77.45;98873.84;5078342;28;20051;-84
2023/07/19 00:13:12;;;;;;;8.73;5.05;;;;;;;23.19;77.65;98865.28;5083864;28;20083;-88
2023/07/19 00:15:56;;;;;;;10.10;4.90;;;;;;;23.21;77.73;98855.09;5081223;28;20047;-86
2023/07/19 00:18:40;;;;;;;6.28;4.88;;;;;;;23.24;77.96;98857.19;5081424;28;20061;-87
2023/07/19 00:21:24;;;;;;;6.72;5.07;;;;;;;23.29;77.84;98858.25;5081797;28;20516;-82
2023/07/19 00:24:08;;;;;;;8.82;5.05;;;;;;;23.34;77.86;98858.19;5077283;28;20038;-80
2023/07/19 00:26:52;;;;;;;7.47;4.70;;;;;;;23.38;77.52;98854.66;5080523;28;20489;-80
2023/07/19 00:29:35;;;;;;;7.20;4.60;;;;;;;23.44;77.58;98858.09;5082556;28;20050;-81
2023/07/19 00:32:19;;;;;;;6.93;4.65;;;;;;;23.53;77.22;98851.00;5080034;28;20044;-81
2023/07/19 00:35:04;;;;;;;7.80;4.93;;;;;;;23.25;77.95;98855.28;5080695;28;20086;-81
2023/07/19 00:37:48;;;;;;;5.53;4.90;;;;;;;23.12;78.13;98846.06;5080306;28;20547;-82
2023/07/19 00:40:33;;;;;;;7.40;4.55;;;;;;;23.11;78.34;98855.16;5076629;28;20497;-83
2023/07/19 00:43:17;;;;;;;9.13;5.30;;;;;;;23.27;78.30;98853.16;5078948;28;20059;-83
2023/07/19 00:46:01;;;;;;;5.13;4.43;;;;;;;23.13;78.31;98844.97;5079754;28;20094;-82
2023/07/19 00:48:46;;;;;;;7.40;4.57;;;;;;;22.94;78.91;98856.38;5082331;28;20043;-81
2023/07/19 00:51:31;;;;;;;5.63;4.57;;;;;;;23.01;79.06;98849.94;5078845;28;20047;-83
2023/07/19 00:54:15;;;;;;;7.10;5.00;;;;;;;22.97;78.78;98849.69;5079811;28;20039;-84
2023/07/19 00:57:01;;;;;;;7.05;4.45;;;;;;;22.91;79.12;98842.78;5083220;28;20071;-83
2023/07/19 00:59:46;;;;;;;9.05;4.30;;;;;;;22.95;78.98;98847.28;5078578;28;20098;-83
2023/07/19 01:02:30;;;;;;;6.35;4.30;;;;;;;23.01;78.66;98844.56;5080975;28;20067;-83
2023/07/19 01:05:14;;;;;;;6.45;4.22;;;;;;;22.86;78.98;98838.28;5076888;28;20258;-83
2023/07/19 01:07:59;;;;;;;8.00;4.30;;;;;;;22.90;78.66;98844.66;5078640;28;20067;-82
2023/07/19 01:10:44;;;;;;;8.43;4.05;;;;;;;23.00;78.53;98842.97;5079161;28;20524;-83
2023/07/19 01:13:28;;;;;;;6.55;3.90;;;;;;;23.03;78.43;98837.84;5079128;28;20055;-83
2023/07/19 01:16:12;;;;;;;9.05;4.20;;;;;;;23.00;78.16;98825.03;5076361;28;20044;-82
2023/07/19 01:18:56;;;;;;;8.32;4.00;;;;;;;23.01;78.53;98828.50;5079286;28;20047;-83
2023/07/19 01:21:40;;;;;;;7.57;3.80;;;;;;;22.94;78.47;98834.97;5077257;28;20469;-83
2023/07/19 01:24:24;;;;;;;6.25;3.63;;;;;;;22.68;79.14;98837.88;5079116;28;20074;-84
2023/07/19 01:27:08;;;;;;;6.82;3.85;;;;;;;22.80;79.24;98839.41;5078127;28;20044;-82
2023/07/19 01:29:52;;;;;;;7.35;4.10;;;;;;;23.07;78.31;98838.09;5081347;28;20040;-81
2023/07/19 01:32:37;;;;;;;5.38;3.75;;;;;;;23.04;78.52;98839.44;5075515;28;20516;-83
2023/07/19 01:35:21;;;;;;;7.63;4.00;;;;;;;23.01;78.92;98837.31;5079645;28;20096;-84
2023/07/19 01:38:05;;;;;;;6.63;3.88;;;;;;;23.07;78.54;98830.06;5078126;28;20054;-84
2023/07/19 01:40:49;;;;;;;7.80;4.45;;;;;;;23.08;78.52;98835.09;5082200;28;20047;-83
2023/07/19 01:43:35;;;;;;;6.55;4.15;;;;;;;23.06;78.50;98828.47;5077829;28;20071;-83
2023/07/19 01:46:19;;;;;;;7.35;3.42;;;;;;;23.11;78.74;98823.03;5080787;28;20120;-82
2023/07/19 01:49:02;;;;;;;7.68;4.03;;;;;;;23.08;78.69;98828.97;5080062;28;20051;-83
2023/07/19 01:51:46;;;;;;;4.57;3.58;;;;;;;23.14;78.79;98827.81;5082013;28;20106;-82
2023/07/19 01:54:31;;;;;;;7.25;4.00;;;;;;;23.15;78.98;98826.75;5081517;28;20401;-83
2023/07/19 01:57:15;;;;;;;8.43;3.90;;;;;;;23.37;78.49;98828.16;5077730;28;20055;-83
2023/07/19 01:59:59;;;;;;;7.13;4.45;;;;;;;22.97;79.30;98826.38;5078642;28;20070;-81
2023/07/19 02:02:43;;;;;;;5.90;4.22;;;;;;;23.06;79.01;98831.13;5076713;28;20547;-83
2023/07/19 02:05:27;;;;;;;6.57;4.57;;;;;;;23.06;79.16;98828.47;5079323;28;20067;-81
2023/07/19 02:08:11;;;;;;;8.05;4.40;;;;;;;22.93;79.53;98821.88;5081536;28;20043;-81
2023/07/19 02:10:55;;;;;;;5.38;4.28;;;;;;;23.06;79.40;98815.06;5078178;28;20101;-82
2023/07/19 02:13:39;;;;;;;6.95;3.90;;;;;;;22.93;79.62;98806.63;5082464;28;20038;-82
2023/07/19 02:16:23;;;;;;;8.40;4.47;;;;;;;23.12;79.35;98813.94;5079624;28;20054;-81
2023/07/19 02:19:07;;;;;;;8.05;4.53;;;;;;;23.04;79.50;98811.88;5077788;28;20047;-82
2023/07/19 02:21:52;;;;;;;8.65;4.57;;;;;;;23.03;79.67;98807.63;5074965;28;20032;-83
2023/07/19 02:24:35;;;;;;;5.70;3.90;;;;;;;23.02;79.64;98809.47;5076158;28;20090;-83
2023/07/19 02:27:21;;;;;;;7.53;3.85;;;;;;;23.24;79.38;98805.50;5078371;28;20051;-82
2023/07/19 02:30:06;;;;;;;5.78;4.07;;;;;;;23.08;79.49;98805.66;5081506;28;20086;-82
2023/07/19 02:32:50;;;;;;;7.32;4.43;;;;;;;23.18;79.97;98814.69;5084233;28;20501;-83
2023/07/19 02:35:34;;;;;;;7.55;4.57;;;;;;;23.03;80.07;98810.28;5082737;28;20052;-82
2023/07/19 02:38:18;;;;;;;7.78;4.43;;;;;;;23.06;79.88;98804.38;5083218;28;20087;-82
2023/07/19 02:41:02;;;;;;;10.30;4.45;;;;;;;22.96;80.16;98800.69;5085980;28;20485;-84
2023/07/19 02:43:47;;;;;;;8.00;4.40;;;;;;;22.97;80.47;98796.94;5079788;28;20042;-82
2023/07/19 02:46:31;;;;;;;6.60;4.20;;;;;;;23.17;79.67;98789.78;5080640;28;20039;-83
2023/07/19 02:49:15;;;;;;;5.88;4.35;;;;;;;23.13;79.56;98786.06;5081429;28;20075;-83
2023/07/19 02:52:00;;;;;;;11.07;4.72;;;;;;;22.97;79.98;98802.28;5080751;28;20435;-82
2023/07/19 02:54:44;;;;;;;8.18;5.25;;;;;;;22.87;80.24;98794.38;5083976;28;20046;-82
2023/07/19 02:57:28;;;;;;;9.50;4.60;;;;;;;23.06;80.09;98793.66;5082653;28;20055;-82
2023/07/19 03:00:12;;;;;;;11.27;4.90;;;;;;;22.96;80.32;98795.34;5079641;28;20136;-82
2023/07/19 03:02:57;;;;;;;9.32;5.05;;;;;;;22.76;80.89;98791.00;5081510;28;20036;-83
2023/07/19 03:05:44;;;;;;;11.93;5.28;;;;;;;22.66;81.26;98786.53;5081304;28;20039;-82
2023/07/19 03:08:28;;;;;;;9.85;5.72;;;;;;;22.66;81.39;98791.06;5084447;28;20520;-81
2023/07/19 03:11:13;;;;;;;9.60;4.95;;;;;;;22.93;81.11;98779.84;5077392;28;20044;-82
2023/07/19 03:13:57;;;;;;;6.65;4.88;;;;;;;22.91;81.25;98790.03;5085730;28;20056;-82
2023/07/19 03:16:42;;;;;;;;;;;;;;;22.97;80.90;98794.25;5080785;28;20046;-81
2023/07/19 03:19:26;;;;;;;10.98;5.50;;;;;;;23.06;80.61;98794.44;5082739;28;19927;-82
2023/07/19 03:22:10;;;;;;;9.55;5.03;;;;;;;23.19;80.09;98787.63;5084550;28;20047;-83
2023/07/19 03:24:54;;;;;;;11.48;5.20;;;;;;;23.08;80.28;98780.78;5080217;28;20042;-83
2023/07/19 03:27:38;;;;;;;7.55;5.35;;;;;;;23.03;80.60;98783.53;5083140;28;20451;-84
2023/07/19 03:30:22;;;;;;;8.45;5.50;;;;;;;23.18;79.93;98780.66;5080956;28;20474;-84
2023/07/19 03:33:06;;;;;;;9.85;5.18;;;;;;;23.24;80.31;98787.56;5082212;28;20051;-84
2023/07/19 03:35:51;;;;;;;9.27;5.50;;;;;;;23.26;80.10;98787.31;5083703;28;20042;-83
2023/07/19 03:38:35;;;;;;;10.75;6.65;;;;;;;23.05;80.56;98798.19;5078619;28;20405;-83
2023/07/19 03:41:19;;;;;;;11.23;6.15;;;;;;;23.33;80.37;98800.34;5081104;28;20455;-84
2023/07/19 03:44:03;;;;;;;8.13;5.75;;;;;;;22.75;81.47;98805.44;5083075;28;20127;-83
2023/07/19 03:46:47;;;;;;;11.57;6.47;;;;;;;22.73;81.82;98807.63;5080154;28;20456;-83
2023/07/19 03:49:31;;;;;;;7.68;5.85;;;;;;;22.82;81.83;98807.81;5076519;28;20043;-84
2023/07/19 03:52:15;;;;;;;8.45;5.53;;;;;;;22.98;81.50;98813.81;5078509;28;20390;-82
2023/07/19 03:54:59;;;;;;;12.00;6.10;;;;;;;23.07;81.22;98811.31;5078803;28;20070;-82
2023/07/19 03:57:43;;;;;;;11.18;6.15;;;;;;;22.99;81.48;98809.22;5082308;28;20035;-82
2023/07/19 04:00:28;;;;;;;8.90;5.75;;;;;;;23.03;81.31;98815.66;5078287;28;20039;-81
2023/07/19 04:03:12;;;;;;;7.18;5.40;;;;;;;22.89;81.55;98816.28;5080269;28;20063;-81
2023/07/19 04:05:57;;;;;;;8.27;5.60;;;;;;;22.86;81.51;98816.06;5081543;28;20074;-82
2023/07/19 04:08:41;;;;;;;9.43;6.07;;;;;;;22.92;82.24;98821.06;5080611;28;20410;-82
2023/07/19 04:11:25;;;;;;;8.70;5.97;;;;;;;22.82;81.93;98818.50;5080758;28;20047;-82
2023/07/19 04:14:09;;;;;;;8.48;5.68;;;;;;;22.86;82.36;98810.69;5082415;28;20036;-82
2023/07/19 04:16:53;;;;;;;7.32;5.00;;;;;;;22.88;82.35;98809.34;5075407;28;20406;-81
2023/07/19 04:19:37;;;;;;;13.93;6.13;;;;;;;22.90;81.73;98812.53;5081709;28;20094;-81
2023/07/19 04:22:21;;;;;;;6.72;4.95;;;;;;;22.99;81.91;98823.44;5082727;28;20044;-81
2023/07/19 04:25:06;;;;;;;7.13;5.63;;;;;;;23.14;81.25;98824.38;5083902;28;20039;-81
2023/07/19 04:27:50;;;;;;;7.70;5.15;;;;;;;23.22;81.20;98819.19;5080371;28;20062;-81
2023/07/19 04:30:34;;;;;;;9.90;6.32;;;;;;;23.10;81.56;98818.78;5078981;28;20119;-81
2023/07/19 04:33:19;;;;;;;8.48;5.40;;;;;;;23.09;81.66;98814.50;5071687;28;20116;-81
2023/07/19 04:36:13;;;;;;;8.20;5.07;;;;;;;22.89;82.08;98810.94;5082191;28;20055;-81
2023/07/19 04:38:57;;;;;;;8.30;5.88;;;;;;;22.86;82.70;98808.03;5077735;28;20039;-82
2023/07/19 04:41:41;;;;;;;7.82;4.68;;;;;;;22.92;82.83;98805.03;5081370;28;20035;-82
2023/07/19 04:44:25;;;;;;;8.35;5.45;;;;;;;22.80;83.40;98804.63;5084599;28;20129;-82
2023/07/19 04:47:10;;;;;;;7.00;5.32;;;;;;;22.94;82.80;98797.50;5081021;28;20519;-83
2023/07/19 04:49:54;;;;;;;8.45;5.65;;;;;;;23.03;82.75;98811.06;5077331;28;20093;-82
2023/07/19 04:52:39;;;;;;;9.57;5.50;;;;;;;22.89;82.98;98802.09;5075275;28;20089;-80
2023/07/19 04:55:23;;;;;;;8.32;5.40;;;;;;;22.99;83.30;98809.22;5071312;28;20101;-80
2023/07/19 04:58:07;;;;;;;7.57;4.88;;;;;;;22.94;83.19;98808.22;5072882;28;20540;-81
2023/07/19 05:00:51;;;;;;;10.65;5.93;;;;;;;22.96;83.32;98816.75;5074694;28;20073;-81
2023/07/19 05:03:36;;;;;;;8.95;6.28;;;;;;;23.04;83.16;98818.03;5078247;28;20039;-81
2023/07/19 05:06:21;;;;;;;8.35;5.53;;;;;;;23.21;83.22;98822.94;5075917;28;20402;-81
2023/07/19 05:09:06;;;;;;;8.73;6.07;;;;;;;23.20;83.26;98821.38;5074429;28;20472;-81
2023/07/19 05:11:50;;;;;;;13.77;6.32;;;;;;;23.23;83.27;98825.34;5076777;28;20038;-79
2023/07/19 05:14:35;;;;;;;7.40;5.72;;;;;;;23.28;83.21;98824.53;5075145;28;20082;-80
2023/07/19 05:17:19;;;;;;;6.53;5.50;;;;;;;23.68;82.08;98825.13;5080067;28;20401;-80
2023/07/19 05:20:05;;;;;;;11.60;5.57;;;;;;;23.29;83.17;98826.94;5081495;28;20083;-80
2023/07/19 05:22:49;;;;;;;6.07;4.95;;;;;;;23.36;82.99;98826.56;5077596;28;20082;-85
2023/07/19 05:25:33;;;;;;;6.38;5.55;;;;;;;23.22;83.58;98826.41;5077241;28;20043;-82
2023/07/19 05:28:20;;;;;;;8.90;5.30;;;;;;;23.33;83.60;98824.44;5077132;28;20115;-81
2023/07/19 05:31:05;;;;;;;11.90;5.30;;;;;;;23.60;83.17;98831.13;5077944;28;20444;-80
2023/07/19 05:33:49;;;;;;;8.57;6.07;;;;;;;23.57;82.74;98829.00;5078255;28;20078;-82
2023/07/19 05:36:34;;;;;;;8.45;5.70;;;;;;;23.65;82.53;98831.06;5073270;28;20051;-84
2023/07/19 05:39:18;;;;;;;9.70;6.32;;;;;;;23.87;82.03;98837.75;5080925;28;20433;-83
2023/07/19 05:42:02;;;;;;;11.13;6.47;;;;;;;23.51;82.87;98831.75;5080765;28;20424;-84
2023/07/19 05:44:46;;;;;;;7.88;6.07;;;;;;;23.58;82.53;98834.09;5079803;28;20078;-84
2023/07/19 05:47:30;;;;;;;10.23;6.35;;;;;;;23.58;82.96;98835.97;5079242;28;20545;-84
2023/07/19 05:50:14;;;;;;;9.35;5.40;;;;;;;23.40;83.57;98841.00;5082191;28;20528;-84
2023/07/19 05:52:58;;;;;;;12.68;5.97;;;;;;;23.30;84.36;98841.09;5084524;28;20050;-83
2023/07/19 05:55:42;;;;;;;8.88;6.15;;;;;;;23.20;84.33;98840.09;5077162;28;20070;-83
2023/07/19 05:58:28;;;;;;;7.45;5.70;;;;;;;23.02;85.11;98830.09;5080848;28;20094;-82
2023/07/19 06:01:17;;;;;;;7.80;5.97;;;;;;;23.02;85.74;98838.91;5084568;28;20097;-84
2023/07/19 06:04:03;;;;;;;6.20;5.60;;;;;;;23.13;85.33;98834.25;5078283;28;20528;-84
2023/07/19 06:06:48;;;;;;;7.78;5.82;;;;;;;23.41;85.13;98841.78;5077049;28;20051;-84
2023/07/19 06:09:33;;;;;;;10.27;6.75;;;;;;;23.80;84.15;98838.13;5082064;28;20420;-83
2023/07/19 06:12:17;;;;;;;10.10;6.75;;;;;;;24.25;83.03;98833.22;5080448;28;20097;-82
2023/07/19 06:15:01;;;;;;;7.80;5.90;;;;;;;23.95;83.33;98847.84;5078977;28;20090;-83
2023/07/19 06:17:45;;;;;;;9.52;7.07;;;;;;;23.52;84.44;98849.41;5077073;28;20102;-83
2023/07/19 06:20:30;;;;;;;6.97;5.55;;;;;;;24.13;83.05;98846.28;5081683;28;20044;-83
2023/07/19 06:23:14;;;;;;;6.95;5.65;;;;;;;23.93;83.31;98863.41;5077929;28;20055;-81
2023/07/19 06:25:58;;;;;;;9.45;6.30;;;;;;;24.09;83.56;98856.78;5085027;28;20451;-82
2023/07/19 06:28:42;;;;;;;6.47;5.72;;;;;;;24.25;83.16;98862.72;5074921;28;20085;-80
2023/07/19 06:31:26;;;;;;;6.05;5.45;;;;;;;24.27;83.21;98862.47;5072901;28;20082;-79
2023/07/19 06:34:10;;;;;;;5.88;5.25;;;;;;;24.54;81.99;98866.34;5077080;28;20127;-79
2023/07/19 06:36:54;;;;;;;10.70;5.97;;;;;;;24.18;83.10;98869.56;5074123;28;20089;-79
2023/07/19 06:39:37;;;;;;;6.53;4.97;;;;;;;24.30;82.59;98867.25;5071344;28;20425;-79
2023/07/19 06:42:21;;;;;;;23.67;6.82;;;;;;;23.71;83.43;98878.13;5075416;28;20035;-79
2023/07/19 06:45:06;;;;;;;7.30;4.78;;;;;;;23.32;85.47;98884.44;5072636;28;20123;-79
2023/07/19 06:47:50;;;;;;;2.80;2.60;;;;;;;22.48;87.61;98875.47;5078039;28;20120;-79
2023/07/19 06:50:34;;;;;;;1.42;1.33;;;;;;;21.23;100.00;98883.09;5068854;28;20039;-79
2023/07/19 06:53:18;;;;;;;1.60;1.50;;;;;;;21.65;99.34;98886.53;5073467;28;20079;-80
2023/07/19 06:56:02;;;;;;;3.40;1.25;;;;;;;21.35;99.86;98896.16;5079359;28;20050;-79
2023/07/19 06:58:47;;;;;;;1.25;1.13;;;;;;;21.29;100.00;98906.03;5071312;28;20043;-80
2023/07/19 07:01:31;;;;;;;1.83;1.40;;;;;;;21.90;99.93;98906.22;5070436;28;20051;-80
2023/07/19 07:04:15;;;;;;;2.72;1.65;;;;;;;21.78;97.51;98906.50;5070803;28;20213;-81
2023/07/19 07:06:59;;;;;;;2.05;1.85;;;;;;;21.06;100.00;98908.19;5073879;28;21419;-79
2023/07/19 07:09:43;;;;;;;2.95;2.63;;;;;;;21.70;100.00;98921.22;5069512;28;20709;-78
2023/07/19 07:12:27;;;;;;;5.75;2.92;;;;;;;20.91;100.00;98933.00;5065097;28;20054;-80
2023/07/19 07:15:11;;;;;;;4.45;3.65;;;;;;;20.86;100.00;98919.66;5069896;28;20101;-79
2023/07/19 07:17:55;;;;;;;6.90;4.53;;;;;;;20.70;100.00;98926.81;5068855;28;20052;-79
2023/07/19 07:20:39;;;;;;;6.65;4.95;;;;;;;21.42;100.00;98918.06;5068222;28;20047;-78
2023/07/19 07:23:23;;;;;;;5.75;4.38;;;;;;;21.43;100.00;98916.16;5073158;28;20043;-78
2023/07/19 07:26:07;;;;;;;5.93;4.88;;;;;;;21.40;100.00;98920.16;5071581;28;20036;-78
2023/07/19 07:28:51;;;;;;;6.32;5.57;;;;;;;21.42;100.00;98915.38;5080296;28;20047;-78
2023/07/19 07:31:35;;;;;;;8.32;5.65;;;;;;;20.55;100.00;98927.59;5073160;28;20051;-79
2023/07/19 07:34:19;;;;;;;9.63;5.85;;;;;;;20.56;100.00;98929.19;5077145;28;20105;-77
2023/07/19 07:37:04;;;;;;;8.85;5.85;;;;;;;20.73;100.00;98936.16;5076119;28;20066;-78
2023/07/19 07:39:48;;;;;;;10.95;6.93;;;;;;;20.26;100.00;98938.69;5074469;28;20109;-78
2023/07/19 07:42:32;;;;;;;8.05;6.18;;;;;;;21.06;100.00;98928.75;5081174;28;20048;-78
2023/07/19 07:45:17;;;;;;;7.68;6.75;;;;;;;20.87;100.00;98942.63;5084036;28;20044;-80
2023/07/19 07:48:01;;;;;;;9.00;6.70;;;;;;;21.57;100.00;98941.25;5079810;28;20467;-78
2023/07/19 07:50:49;;;;;;;7.85;6.60;;;;;;;21.09;100.00;98950.34;5078198;28;20109;-78
2023/07/19 07:53:33;;;;;;;7.28;6.32;;;;;;;21.44;100.00;98945.28;5075444;28;20051;-78
2023/07/19 07:56:17;;;;;;;6.38;5.45;;;;;;;21.24;100.00;98946.09;5080129;28;20459;-78
2023/07/19 07:59:02;;;;;;;6.13;5.07;;;;;;;21.38;100.00;98947.16;5076880;28;20422;-78
2023/07/19 08:01:46;;;;;;;6.53;5.57;;;;;;;21.31;100.00;98951.16;5079433;28;20535;-78
2023/07/19 08:04:30;;;;;;;6.43;5.50;;;;;;;21.56;100.00;98942.31;5076592;28;20047;-77
2023/07/19 08:07:14;;;;;;;6.13;4.97;;;;;;;21.45;100.00;98952.22;5075255;28;20494;-78
2023/07/19 08:09:58;;;;;;;6.00;5.40;;;;;;;21.92;100.00;98960.16;5076772;28;20075;-78
2023/07/19 08:12:45;;;;;;;6.65;4.65;;;;;;;21.71;100.00;98964.75;5079193;28;20146;-79
2023/07/19 08:15:29;;;;;;;6.57;5.03;;;;;;;21.29;100.00;98966.66;5078086;28;20171;-80
2023/07/19 08:18:13;;;;;;;8.18;4.60;;;;;;;21.66;100.00;98962.91;5081676;28;20112;-79
2023/07/19 08:20:57;;;;;;;7.10;5.55;;;;;;;21.35;100.00;98957.56;5079957;28;20390;-79
2023/07/19 08:23:41;;;;;;;6.78;5.10;;;;;;;20.76;100.00;98972.97;5077529;28;20090;-78
2023/07/19 08:26:25;;;;;;;6.97;5.30;;;;;;;21.89;100.00;98971.41;5081329;28;20085;-78
2023/07/19 08:29:10;;;;;;;8.48;4.82;;;;;;;22.80;98.58;98965.94;5078957;28;20048;-79
2023/07/19 08:31:54;;;;;;;5.88;5.10;;;;;;;23.18;96.04;98964.63;5081550;28;20043;-79
2023/07/19 08:34:38;;;;;;;8.88;5.95;;;;;;;22.96;94.96;98958.59;5077143;28;20047;-79
2023/07/19 08:37:22;;;;;;;6.78;5.57;;;;;;;23.24;96.21;98966.97;5078766;28;20050;-78
2023/07/19 08:40:07;;;;;;;5.30;4.80;;;;;;;23.45;92.31;98972.19;5082175;28;20078;-78
2023/07/19 08:42:51;;;;;;;7.25;5.50;;;;;;;24.19;92.09;98965.03;5078878;28;20504;-78
2023/07/19 08:45:38;;;;;;;5.53;4.85;;;;;;;24.27;90.03;98964.38;5079000;28;20162;-78
2023/07/19 08:48:22;;;;;;;5.63;5.03;;;;;;;24.06;88.03;98971.84;5077675;28;20105;-78
2023/07/19 08:51:07;;;;;;;7.22;5.80;;;;;;;23.82;88.10;98970.75;5076452;28;20094;-77
2023/07/19 08:53:51;;;;;;;7.32;5.50;;;;;;;23.60;87.23;98968.56;5078718;28;20047;-78
2023/07/19 08:56:36;;;;;;;6.10;5.45;;;;;;;24.59;86.29;98970.13;5080179;28;20085;-78
2023/07/19 08:59:20;;;;;;;7.20;6.22;;;;;;;25.09;85.11;98962.44;5081966;28;20067;-78
2023/07/19 09:02:04;;;;;;;7.97;5.63;;;;;;;24.79;83.66;98964.50;5080670;28;20047;-80
2023/07/19 09:05:09;;;;;;;7.22;6.53;;;;;;;24.89;83.67;98962.75;5078331;28;20097;-78
2023/07/19 09:07:53;;;;;;;;;;;;;;;25.70;84.02;98967.06;5080810;28;20531;-78
2023/07/19 09:10:37;;;;;;;7.05;5.60;;;;;;;24.77;83.17;98966.69;5080126;28;19956;-78
2023/07/19 09:13:21;;;;;;;6.05;5.45;;;;;;;25.74;81.40;98960.00;5079808;28;20167;-78
2023/07/19 09:16:06;;;;;;;6.50;5.82;;;;;;;25.26;79.30;98976.41;5079763;28;20043;-78
2023/07/19 09:18:50;;;;;;;6.15;5.45;;;;;;;25.55;79.56;98975.41;5077464;28;20050;-78
2023/07/19 09:21:42;;;;;;;6.10;5.50;;;;;;;26.32;78.06;98976.63;5076182;28;20459;-78
2023/07/19 09:24:26;;;;;;;8.32;5.20;;;;;;;26.67;75.88;98978.88;5079228;28;20387;-78
2023/07/19 09:27:23;;;;;;;5.35;4.85;;;;;;;26.55;75.88;98979.41;5078605;28;20039;-78
2023/07/19 09:30:12;;;;;;;6.45;5.05;;;;;;;26.04;75.20;98983.91;5071578;28;20039;-78
2023/07/19 09:32:58;;;;;;;5.70;4.93;;;;;;;26.76;73.97;98978.97;5076542;28;20097;-78
2023/07/19 09:35:42;;;;;;;5.60;4.72;;;;;;;26.86;73.92;98981.44;5076684;28;20039;-78
2023/07/19 09:38:26;;;;;;;6.40;4.63;;;;;;;27.74;72.04;98982.00;5077469;28;20106;-78
2023/07/19 09:41:11;;;;;;;3.80;3.50;;;;;;;27.91;71.19;98985.88;5079263;28;20070;-77
2023/07/19 09:43:58;;;;;;;3.97;3.47;;;;;;;26.46;71.61;98983.91;5074774;28;20535;-77
2023/07/19 09:46:44;;;;;;;3.72;2.95;;;;;;;27.15;71.32;98980.22;5076133;28;20448;-78
2023/07/19 09:49:28;;;;;;;3.50;2.67;;;;;;;26.92;70.02;98980.22;5077454;28;20508;-77
2023/07/19 09:52:16;;;;;;;4.50;2.80;;;;;;;27.94;71.28;98990.66;5073796;28;20579;-77
2023/07/19 09:55:02;;;;;;;2.75;2.33;;;;;;;28.17;67.71;98988.66;5077968;28;20050;-77
2023/07/19 09:57:50;;;;;;;2.30;2.10;;;;;;;27.19;69.25;98985.78;5075281;28;20158;-77
2023/07/19 10:00:35;;;;;;;2.70;2.17;;;;;;;27.36;68.37;98985.13;5076738;28;20458;-78
2023/07/19 10:03:20;;;;;;;3.80;2.30;;;;;;;27.97;67.45;98995.41;5073361;28;20051;-77
2023/07/19 10:06:04;;;;;;;2.45;2.25;;;;;;;26.62;67.26;98990.56;5071688;28;20072;-77
2023/07/19 10:08:48;;;;;;;2.30;2.10;;;;;;;27.20;67.78;98985.50;5077027;28;20090;-77
2023/07/19 10:11:32;;;;;;;2.75;2.55;;;;;;;27.64;66.35;98988.47;5075515;28;20465;-77
2023/07/19 10:14:25;;;;;;;3.85;1.88;;;;;;;27.97;66.36;98991.91;5075869;28;20036;-77
2023/07/19 10:17:09;;;;;;;1.77;1.67;;;;;;;27.98;66.47;98980.00;5076967;28;20039;-76
2023/07/19 10:20:02;;;;;;;2.88;1.77;;;;;;;27.73;66.37;98987.69;5075540;28;20157;-77
2023/07/19 10:22:55;;;;;;;1.90;1.80;;;;;;;27.07;65.60;98975.56;5079158;28;20415;-78
2023/07/19 10:25:50;;;;;;;2.30;2.10;;;;;;;27.27;65.94;98982.38;5080485;28;20463;-79
2023/07/19 10:28:34;;;;;;;1.80;1.70;;;;;;;25.52;66.72;98985.66;5076768;28;20400;-78
2023/07/19 10:31:18;;;;;;;2.05;1.90;;;;;;;26.08;67.35;98977.63;5074005;28;20043;-78
2023/07/19 10:34:03;;;;;;;1.80;1.70;;;;;;;26.34;66.11;98992.50;5080901;28;20078;-78
2023/07/19 10:36:47;;;;;;;2.00;1.80;;;;;;;26.67;67.06;98985.06;5076727;28;20067;-78
2023/07/19 10:39:32;;;;;;;2.00;1.60;;;;;;;26.04;67.69;98987.41;5078451;28;20054;-78
2023/07/19 10:42:16;;;;;;;2.38;2.03;;;;;;;25.73;68.22;98990.66;5077462;28;20055;-78
2023/07/19 10:45:00;;;;;;;2.00;1.80;;;;;;;26.79;65.89;98994.50;5079648;28;20051;-78
2023/07/19 10:47:44;;;;;;;1.67;1.58;;;;;;;27.25;65.76;98999.94;5080413;28;20504;-78
2023/07/19 10:50:28;;;;;;;1.88;1.77;;;;;;;26.90;65.94;99000.47;5078820;28;20047;-78
2023/07/19 10:53:14;;;;;;;1.73;1.50;;;;;;;26.41;67.32;98995.56;5083837;28;20093;-78
2023/07/19 10:55:58;;;;;;;2.20;1.80;;;;;;;26.77;64.56;98999.41;5079551;28;20047;-78
2023/07/19 10:58:43;;;;;;;1.70;1.60;;;;;;;27.33;63.87;98997.28;5081793;28;20047;-78
2023/07/19 11:01:29;;;;;;;1.50;1.40;;;;;;;27.12;63.95;99001.59;5082490;28;20374;-78
2023/07/19 11:04:13;;;;;;;1.40;1.30;;;;;;;27.45;62.51;99002.13;5082494;28;20116;-78
2023/07/19 11:07:00;;;;;;;1.83;1.73;;;;;;;27.22;62.61;98999.44;5077229;28;20569;-78
2023/07/19 11:09:50;;;;;;;3.70;1.70;;;;;;;26.34;63.77;98996.00;5081062;28;20039;-78
2023/07/19 11:12:35;;;;;;;1.60;1.30;;;;;;;26.13;62.73;99005.53;5083566;28;20390;-78
2023/07/19 11:15:19;;;;;;;1.48;1.38;;;;;;;26.74;62.60;99003.47;5075329;28;20047;-78
2023/07/19 11:18:04;;;;;;;1.33;1.23;;;;;;;26.18;63.77;99005.47;5074683;28;20071;-78
2023/07/19 11:20:48;;;;;;;1.40;1.30;;;;;;;26.26;63.50;99012.81;5085584;28;20106;-78
2023/07/19 11:23:38;;;;;;;2.35;1.50;;;;;;;26.78;63.17;98996.38;5080301;28;20035;-78
2023/07/19 11:26:22;;;;;;;1.85;1.65;;;;;;;26.46;63.38;99008.13;5079837;28;20048;-79
2023/07/19 11:29:06;;;;;;;2.75;1.40;;;;;;;25.71;64.98;99008.19;5082700;28;20051;-78
2023/07/19 11:31:50;;;;;;;1.60;1.50;;;;;;;26.04;65.04;98997.34;5083397;28;20130;-78
2023/07/19 11:34:48;;;;;;;1.58;1.48;;;;;;;26.08;65.93;99007.22;5079280;28;20039;-78
2023/07/19 11:37:36;;;;;;;2.17;1.30;;;;;;;25.99;66.36;99006.34;5077740;28;20400;-78
2023/07/19 11:40:22;;;;;;;1.40;1.30;;;;;;;26.01;65.97;99006.84;5082389;28;20051;-78
2023/07/19 11:43:07;;;;;;;2.50;1.67;;;;;;;25.89;65.33;99017.28;5076207;28;20110;-78
2023/07/19 11:45:50;;;;;;;1.40;1.30;;;;;;;25.87;65.68;99017.59;5078468;28;20459;-78
2023/07/19 11:48:34;;;;;;;1.10;1.10;;;;;;;25.85;64.79;99008.22;5078617;28;20118;-78
2023/07/19 11:51:18;;;;;;;1.23;1.10;;;;;;;26.64;63.89;99003.72;5083773;28;20071;-78
2023/07/19 11:54:03;;;;;;;1.45;1.10;;;;;;;26.70;64.68;99009.78;5081002;28;20398;-78
2023/07/19 11:56:47;;;;;;;2.40;1.40;;;;;;;26.55;63.25;99010.91;5078981;28;20078;-78
2023/07/19 11:59:31;;;;;;;2.55;1.40;;;;;;;28.24;61.03;98999.00;5083253;28;20051;-78
2023/07/19 12:02:16;;;;;;;1.50;1.40;;;;;;;27.70;61.62;99002.59;5083720;28;20047;-78
2023/07/19 12:04:59;;;;;;;1.85;1.50;;;;;;;27.34;61.49;98998.88;5077387;28;20444;-77
2023/07/19 12:07:44;;;;;;;1.30;1.20;;;;;;;26.70;63.64;99009.78;5077135;28;20417;-77
2023/07/19 12:10:29;;;;;;;1.60;1.42;;;;;;;27.35;63.06;99013.16;5081668;28;20134;-78
2023/07/19 12:13:13;;;;;;;1.50;1.40;;;;;;;27.48;62.37;99003.41;5080887;28;20174;-77
2023/07/19 12:15:57;;;;;;;1.60;1.50;;;;;;;28.14;61.15;99010.06;5078356;28;20047;-77
2023/07/19 12:18:41;;;;;;;1.50;1.40;;;;;;;27.91;61.17;99012.84;5077206;28;20075;-78
2023/07/19 12:21:25;;;;;;;1.77;1.50;;;;;;;28.62;60.53;99014.63;5080891;28;20063;-78
2023/07/19 12:24:09;;;;;;;1.42;1.40;;;;;;;28.56;59.90;99015.91;5083988;28;20075;-78
2023/07/19 12:26:52;;;;;;;1.52;1.42;;;;;;;29.09;56.60;99002.44;5076648;28;20097;-78
2023/07/19 12:29:36;;;;;;;1.60;1.50;;;;;;;28.93;56.19;99002.94;5082504;28;20074;-78
2023/07/19 12:32:20;;;;;;;1.70;1.60;;;;;;;28.44;57.45;99010.31;5078714;28;20413;-78
2023/07/19 12:35:05;;;;;;;1.60;1.50;;;;;;;28.74;58.00;99013.22;5084569;28;20093;-77
2023/07/19 12:37:49;;;;;;;2.53;1.70;;;;;;;27.45;59.52;99022.91;5080543;28;20047;-78
2023/07/19 12:40:33;;;;;;;2.30;1.40;;;;;;;27.99;59.09;99008.56;5078778;28;20122;-77
2023/07/19 12:43:17;;;;;;;1.55;1.45;;;;;;;27.84;59.34;99012.50;5075460;28;20031;-78
2023/07/19 12:46:01;;;;;;;3.40;1.40;;;;;;;27.43;60.54;99008.94;5078556;28;20052;-78
2023/07/19 12:48:45;;;;;;;1.58;1.42;;;;;;;28.10;60.95;99009.91;5078326;28;20089;-78
2023/07/19 12:51:29;;;;;;;1.55;1.45;;;;;;;28.09;59.69;99001.00;5084947;28;20034;-77
2023/07/19 12:54:14;;;;;;;1.60;1.50;;;;;;;28.04;58.23;99003.84;5075508;28;20044;-78